Time;durP1;ratioP1;P1;durP2;ratioP2;P2;SDS_P1;SDS_P2;PMS_P1;PMS_P2;Temp;Humidity;BMP_temperature;BMP_pressure;BME280_temperature;BME280_humidity;BME280_pressure;Samples;Min_cycle;Max_cycle;Signal;HPM_P1;HPM_P2
2022/06/19 00:00:52;;;;;;;28.52;6.53;;;30.00;49.80;;;;;;7365591;19;20015;-76
2022/06/19 00:03:26;;;;;;;27.92;5.32;;;29.90;50.20;;;;;;7366069;19;20074;-79
2022/06/19 00:05:59;;;;;;;30.27;5.85;;;29.90;50.50;;;;;;7364903;19;20614;-76
2022/06/19 00:08:28;;;;;;;18.65;5.93;;;29.80;50.80;;;;;;7367272;19;20030;-77
2022/06/19 00:10:57;;;;;;;20.33;5.63;;;29.80;51.20;;;;;;7388568;19;20101;-77
2022/06/19 00:13:29;;;;;;;16.45;5.15;;;29.70;51.50;;;;;;7365915;19;20018;-77
2022/06/19 00:15:58;;;;;;;28.35;5.80;;;29.70;51.40;;;;;;7366970;19;20077;-77
2022/06/19 00:18:27;;;;;;;15.77;5.20;;;29.80;51.40;;;;;;7369500;19;20102;-77
2022/06/19 00:20:56;;;;;;;17.88;5.45;;;29.80;52.10;;;;;;7370525;19;20018;-77
2022/06/19 00:23:25;;;;;;;31.42;5.38;;;29.80;51.60;;;;;;7374264;19;20015;-77
2022/06/19 00:25:54;;;;;;;22.40;4.93;;;29.80;51.60;;;;;;7393230;19;20744;-76
2022/06/19 00:28:23;;;;;;;24.02;4.72;;;29.80;51.50;;;;;;7373094;19;20021;-77
2022/06/19 00:30:54;;;;;;;18.52;5.55;;;29.90;51.40;;;;;;7370458;19;20350;-77
2022/06/19 00:33:23;;;;;;;13.48;4.78;;;29.60;51.60;;;;;;7373140;19;20017;-77
2022/06/19 00:35:52;;;;;;;17.05;5.15;;;29.00;51.80;;;;;;7369434;19;20448;-77
2022/06/19 00:38:21;;;;;;;15.95;4.72;;;28.80;52.30;;;;;;7373432;19;20018;-77
2022/06/19 00:40:49;;;;;;;18.27;5.10;;;28.70;52.50;;;;;;7393288;19;20034;-77
2022/06/19 00:43:18;;;;;;;23.55;4.88;;;28.70;52.00;;;;;;7368103;19;20022;-76
2022/06/19 00:45:49;;;;;;;20.15;4.93;;;28.50;52.20;;;;;;7372107;19;20031;-75
2022/06/19 00:48:28;;;;;;;14.27;4.70;;;28.40;51.70;;;;;;7370586;19;20896;-76
2022/06/19 00:50:59;;;;;;;12.27;4.25;;;28.00;51.90;;;;;;7371469;19;20018;-75
2022/06/19 00:53:34;;;;;;;14.80;4.40;;;27.90;52.40;;;;;;7371895;19;20014;-76
2022/06/19 00:56:05;;;;;;;15.00;4.10;;;28.10;51.50;;;;;;7392216;19;20460;-76
2022/06/19 00:58:38;;;;;;;23.52;4.20;;;27.90;51.70;;;;;;7369720;19;20388;-75
2022/06/19 01:01:12;;;;;;;15.75;3.80;;;27.80;51.70;;;;;;7371267;19;20438;-75
2022/06/19 01:03:52;;;;;;;14.73;4.45;;;27.60;51.60;;;;;;7370516;19;20099;-75
2022/06/19 01:06:23;;;;;;;16.45;3.53;;;27.70;51.30;;;;;;7370761;19;20061;-75
2022/06/19 01:08:52;;;;;;;17.50;4.50;;;27.80;50.70;;;;;;7370232;19;20147;-75
2022/06/19 01:11:23;;;;;;;16.33;4.00;;;27.60;50.60;;;;;;7370089;19;20021;-75
2022/06/19 01:13:53;;;;;;;24.60;4.18;;;27.60;50.30;;;;;;7393890;19;20447;-74
2022/06/19 01:16:22;;;;;;;19.73;3.83;;;27.10;50.40;;;;;;7369671;19;20094;-74
2022/06/19 01:18:53;;;;;;;29.92;4.45;;;26.80;51.10;;;;;;7371392;19;20102;-74
2022/06/19 01:21:25;;;;;;;;;;;26.90;50.50;;;;;;7369007;19;20014;-75
2022/06/19 01:24:04;;;;;;;22.75;3.90;;;26.80;50.30;;;;;;7371109;19;19919;-74
2022/06/19 01:26:42;;;;;;;17.42;3.97;;;26.90;49.90;;;;;;7371478;19;20031;-75
2022/06/19 01:29:09;;;;;;;16.75;4.25;;;26.50;50.10;;;;;;7369013;19;20018;-75
2022/06/19 01:31:43;;;;;;;23.33;4.57;;;26.50;50.20;;;;;;7393261;19;20015;-75
2022/06/19 01:34:32;;;;;;;24.98;4.65;;;26.40;50.40;;;;;;7370962;19;20485;-74
2022/06/19 01:37:06;;;;;;;21.75;4.47;;;26.40;50.40;;;;;;7369029;19;20018;-75
2022/06/19 01:39:38;;;;;;;21.92;4.80;;;26.30;50.20;;;;;;7368613;19;20025;-75
2022/06/19 01:42:11;;;;;;;25.35;4.95;;;26.20;50.40;;;;;;7370709;19;20025;-74
2022/06/19 01:44:40;;;;;;;21.55;4.53;;;26.20;50.30;;;;;;7370743;19;20085;-75
2022/06/19 01:47:09;;;;;;;25.95;5.93;;;25.90;50.70;;;;;;7383271;19;20033;-75
2022/06/19 01:49:39;;;;;;;32.03;6.28;;;25.90;50.90;;;;;;7390810;19;20015;-74
2022/06/19 01:52:13;;;;;;;34.05;6.05;;;25.80;50.90;;;;;;7370556;19;20541;-75
2022/06/19 01:54:46;;;;;;;26.42;5.95;;;25.90;50.90;;;;;;7368688;19;20370;-75
2022/06/19 01:57:19;;;;;;;24.42;5.38;;;26.00;51.20;;;;;;7369522;19;20113;-75
2022/06/19 01:59:49;;;;;;;30.40;6.55;;;25.90;50.50;;;;;;7371019;19;20078;-75
2022/06/19 02:02:18;;;;;;;28.52;6.18;;;26.00;50.10;;;;;;7369476;19;20030;-75
2022/06/19 02:04:48;;;;;;;26.45;5.18;;;26.10;50.00;;;;;;7390010;19;20026;-75
2022/06/19 02:07:21;;;;;;;37.05;6.63;;;26.30;49.50;;;;;;7368094;19;20089;-75
2022/06/19 02:09:51;;;;;;;30.05;6.28;;;26.40;49.00;;;;;;7368434;19;20446;-75
2022/06/19 02:12:23;;;;;;;28.50;6.13;;;26.10;49.10;;;;;;7370733;19;20018;-74
2022/06/19 02:14:52;;;;;;;27.98;6.20;;;26.00;49.10;;;;;;7369350;19;20022;-74
2022/06/19 02:17:25;;;;;;;31.58;6.10;;;25.80;49.50;;;;;;7367857;19;20113;-75
2022/06/19 02:19:54;;;;;;;34.97;7.07;;;25.90;49.40;;;;;;7390056;19;20029;-75
2022/06/19 02:22:23;;;;;;;22.77;5.78;;;26.00;49.00;;;;;;7368843;19;20105;-75
2022/06/19 02:24:52;;;;;;;27.88;6.20;;;26.10;49.00;;;;;;7368069;19;20165;-75
2022/06/19 02:27:28;;;;;;;32.33;6.53;;;26.10;48.70;;;;;;7368178;19;20014;-74
2022/06/19 02:29:57;;;;;;;26.00;6.07;;;26.20;48.40;;;;;;7368599;19;20064;-75
2022/06/19 02:32:29;;;;;;;28.45;6.38;;;26.20;48.20;;;;;;7365949;19;20037;-74
2022/06/19 02:34:58;;;;;;;26.23;6.10;;;26.20;48.20;;;;;;7390888;19;20014;-74
2022/06/19 02:37:29;;;;;;;27.77;5.97;;;26.10;48.10;;;;;;7368359;19;20493;-74
2022/06/19 02:40:07;;;;;;;23.02;5.70;;;26.20;48.40;;;;;;7367992;19;20014;-75
2022/06/19 02:42:42;;;;;;;33.67;6.10;;;26.40;48.10;;;;;;7368501;19;20017;-75
2022/06/19 02:45:19;;;;;;;27.75;6.53;;;26.40;47.90;;;;;;7368506;19;20090;-75
2022/06/19 02:47:48;;;;;;;31.17;6.70;;;26.10;48.10;;;;;;7367808;19;20393;-75
2022/06/19 02:50:20;;;;;;;25.17;6.55;;;25.50;49.20;;;;;;7367717;19;20097;-75
2022/06/19 02:52:48;;;;;;;28.27;6.70;;;25.40;49.40;;;;;;7388607;19;20466;-75
2022/06/19 02:55:18;;;;;;;28.70;6.00;;;25.10;50.00;;;;;;7366259;19;20018;-74
2022/06/19 02:57:50;;;;;;;25.33;6.35;;;24.80;50.30;;;;;;7367983;19;20011;-74
2022/06/19 03:00:22;;;;;;;24.65;6.45;;;24.50;51.00;;;;;;7369438;19;20096;-74
2022/06/19 03:02:53;;;;;;;32.67;7.18;;;24.60;51.80;;;;;;7368717;19;20082;-74
2022/06/19 03:05:25;;;;;;;38.20;7.10;;;24.70;50.90;;;;;;7367464;19;20024;-75
2022/06/19 03:07:53;;;;;;;37.53;6.90;;;24.60;50.90;;;;;;7391074;19;20510;-75
2022/06/19 03:10:23;;;;;;;28.33;7.25;;;24.50;51.10;;;;;;7367442;19;20022;-74
2022/06/19 03:12:54;;;;;;;24.65;6.35;;;24.30;51.60;;;;;;7367916;19;20098;-75
2022/06/19 03:15:23;;;;;;;35.45;7.47;;;24.20;51.80;;;;;;7367206;19;20082;-74
2022/06/19 03:17:52;;;;;;;38.88;7.10;;;24.20;51.80;;;;;;7369777;19;20094;-75
2022/06/19 03:20:24;;;;;;;28.50;6.72;;;24.20;51.70;;;;;;7368429;19;20018;-75
2022/06/19 03:22:53;;;;;;;38.10;5.93;;;24.00;52.00;;;;;;7387831;19;20022;-75
2022/06/19 03:25:22;;;;;;;26.40;6.35;;;24.00;52.10;;;;;;7366091;19;20407;-75
2022/06/19 03:27:57;;;;;;;39.50;7.53;;;24.00;52.50;;;;;;7367403;19;20028;-75
2022/06/19 03:30:31;;;;;;;32.33;6.35;;;24.00;52.10;;;;;;7365212;19;20022;-74
2022/06/19 03:32:59;;;;;;;31.98;6.85;;;24.00;52.10;;;;;;7367366;19;20061;-74
2022/06/19 03:35:30;;;;;;;26.50;6.03;;;24.20;51.90;;;;;;7365381;19;20019;-74
2022/06/19 03:37:59;;;;;;;26.17;6.03;;;24.40;51.50;;;;;;7388374;19;20527;-74
2022/06/19 03:40:28;;;;;;;31.00;6.97;;;24.40;51.30;;;;;;7367027;19;20006;-74
2022/06/19 03:42:59;;;;;;;28.63;6.63;;;24.60;51.10;;;;;;7366784;19;20035;-75
2022/06/19 03:45:28;;;;;;;;;;;24.30;51.40;;;;;;7366742;19;20028;-75
2022/06/19 03:47:56;;;;;;;32.22;6.28;;;24.30;51.80;;;;;;7367664;19;19921;-75
2022/06/19 03:50:25;;;;;;;25.40;6.72;;;24.30;51.50;;;;;;7366703;19;20466;-75
2022/06/19 03:52:54;;;;;;;25.55;7.10;;;24.20;51.70;;;;;;7392429;19;20024;-74
2022/06/19 03:55:23;;;;;;;27.23;6.05;;;24.00;52.00;;;;;;7374095;19;20453;-74
2022/06/19 03:57:51;;;;;;;32.40;7.10;;;24.10;52.10;;;;;;7373584;19;20015;-75
2022/06/19 04:00:23;;;;;;;31.40;6.82;;;24.30;51.70;;;;;;7374315;19;20015;-75
2022/06/19 04:02:52;;;;;;;24.40;6.15;;;24.30;51.50;;;;;;7371174;19;20105;-75
2022/06/19 04:05:23;;;;;;;36.17;6.82;;;24.50;51.30;;;;;;7371856;19;20359;-75
2022/06/19 04:07:52;;;;;;;38.38;8.70;;;24.80;52.70;;;;;;7395679;19;20030;-75
2022/06/19 04:10:23;;;;;;;32.58;8.13;;;25.00;55.20;;;;;;7375819;19;20086;-75
2022/06/19 04:12:52;;;;;;;36.17;7.67;;;25.20;54.90;;;;;;7374098;19;20065;-75
2022/06/19 04:15:25;;;;;;;33.38;7.70;;;25.20;54.70;;;;;;7376014;19;20252;-75
2022/06/19 04:17:54;;;;;;;31.23;7.88;;;25.20;54.80;;;;;;7373800;19;20021;-74
2022/06/19 04:20:22;;;;;;;27.27;8.45;;;25.10;56.20;;;;;;7374400;19;20022;-74
2022/06/19 04:22:51;;;;;;;29.05;7.70;;;25.10;55.00;;;;;;7392922;19;20042;-75
2022/06/19 04:25:20;;;;;;;26.95;8.20;;;25.00;54.10;;;;;;7374240;19;20019;-75
2022/06/19 04:27:53;;;;;;;33.45;7.90;;;24.90;54.00;;;;;;7373892;19;20084;-75
2022/06/19 04:30:24;;;;;;;26.20;7.40;;;25.00;55.70;;;;;;7374457;19;20086;-75
2022/06/19 04:32:53;;;;;;;30.25;8.00;;;25.10;55.00;;;;;;7375236;19;20011;-74
2022/06/19 04:35:22;;;;;;;34.83;7.85;;;25.10;54.40;;;;;;7372058;19;20100;-75
2022/06/19 04:37:51;;;;;;;30.10;8.88;;;25.10;54.70;;;;;;7393676;19;20022;-74
2022/06/19 04:40:23;;;;;;;37.28;9.90;;;25.10;55.00;;;;;;7374166;19;20017;-75
2022/06/19 04:42:51;;;;;;;25.80;8.52;;;24.90;54.10;;;;;;7369578;19;20041;-74
2022/06/19 04:45:20;;;;;;;32.00;8.45;;;24.80;53.50;;;;;;7371646;19;20070;-75
2022/06/19 04:47:52;;;;;;;31.80;8.65;;;24.70;53.80;;;;;;7374020;19;20444;-75
2022/06/19 04:50:22;;;;;;;29.75;8.90;;;24.70;54.50;;;;;;7370200;19;20023;-75
2022/06/19 04:52:51;;;;;;;27.38;8.57;;;24.80;54.90;;;;;;7395697;19;20337;-75
2022/06/19 04:55:22;;;;;;;23.08;8.63;;;24.80;55.90;;;;;;7371865;19;20019;-75
2022/06/19 04:57:51;;;;;;;20.10;7.53;;;25.00;56.40;;;;;;7372676;19;20102;-75
2022/06/19 05:00:21;;;;;;;29.75;7.68;;;25.10;55.70;;;;;;7370027;19;20011;-75
2022/06/19 05:02:54;;;;;;;33.28;8.00;;;25.20;55.40;;;;;;7372767;19;20014;-75
2022/06/19 05:05:26;;;;;;;27.52;8.40;;;25.30;54.90;;;;;;7370861;19;20717;-75
2022/06/19 05:07:55;;;;;;;32.88;8.93;;;25.40;55.20;;;;;;7393974;19;20427;-75
2022/06/19 05:10:24;;;;;;;28.25;9.77;;;25.40;55.90;;;;;;7369252;19;20095;-74
2022/06/19 05:12:57;;;;;;;27.73;8.07;;;25.50;55.60;;;;;;7368251;19;20026;-75
2022/06/19 05:15:26;;;;;;;28.52;7.63;;;25.50;55.50;;;;;;7370257;19;20018;-75
2022/06/19 05:17:58;;;;;;;30.02;8.02;;;25.50;55.50;;;;;;7370807;19;20085;-75
2022/06/19 05:20:27;;;;;;;25.75;7.32;;;25.40;54.00;;;;;;7371279;19;20023;-75
2022/06/19 05:22:55;;;;;;;29.50;8.20;;;25.20;54.50;;;;;;7392243;19;20014;-74
2022/06/19 05:25:24;;;;;;;32.45;7.97;;;24.90;55.00;;;;;;7369733;19;20100;-74
2022/06/19 05:27:53;;;;;;;29.65;8.18;;;24.40;54.70;;;;;;7371217;19;20110;-74
2022/06/19 05:30:22;;;;;;;29.38;7.45;;;24.00;55.50;;;;;;7372662;19;20062;-74
2022/06/19 05:32:51;;;;;;;25.85;7.97;;;24.10;57.90;;;;;;7370354;19;20090;-75
2022/06/19 05:35:23;;;;;;;35.88;8.13;;;24.20;57.90;;;;;;7369074;19;20019;-75
2022/06/19 05:37:51;;;;;;;22.50;6.60;;;24.40;57.90;;;;;;7393993;19;20106;-74
2022/06/19 05:40:20;;;;;;;28.92;6.65;;;24.50;57.10;;;;;;7372250;19;20018;-75
2022/06/19 05:42:49;;;;;;;34.55;7.70;;;24.40;55.90;;;;;;7370239;19;20015;-74
2022/06/19 05:45:18;;;;;;;32.05;6.90;;;24.50;55.10;;;;;;7371656;19;20014;-74
2022/06/19 05:47:47;;;;;;;22.63;6.47;;;24.60;55.50;;;;;;7372771;19;20094;-74
2022/06/19 05:50:16;;;;;;;22.25;6.88;;;24.70;55.80;;;;;;7370187;19;20021;-75
2022/06/19 05:52:47;;;;;;;22.63;6.53;;;24.80;56.30;;;;;;7389574;19;20039;-74
2022/06/19 05:55:15;;;;;;;;;;;24.90;55.90;;;;;;7370613;19;20017;-74
2022/06/19 05:57:44;;;;;;;30.23;6.30;;;25.00;54.80;;;;;;7372188;19;19911;-74
2022/06/19 06:00:13;;;;;;;28.42;5.60;;;25.00;54.40;;;;;;7369917;19;20456;-74
2022/06/19 06:02:42;;;;;;;23.90;5.38;;;24.90;53.50;;;;;;7370910;19;20078;-75
2022/06/19 06:05:13;;;;;;;27.88;5.07;;;24.70;53.90;;;;;;7366725;19;20010;-75
2022/06/19 06:07:41;;;;;;;22.90;4.57;;;24.80;54.10;;;;;;7393775;19;20029;-74
2022/06/19 06:10:14;;;;;;;18.75;5.10;;;24.70;53.80;;;;;;7367233;19;20025;-74
2022/06/19 06:12:43;;;;;;;22.23;5.22;;;24.50;53.80;;;;;;7368982;19;20122;-74
2022/06/19 06:15:12;;;;;;;17.98;4.65;;;24.60;54.00;;;;;;7367713;19;20019;-74
2022/06/19 06:17:41;;;;;;;23.95;4.80;;;24.60;54.20;;;;;;7369614;19;20014;-75
2022/06/19 06:20:11;;;;;;;20.45;5.00;;;24.70;55.20;;;;;;7375487;19;20011;-75
2022/06/19 06:22:39;;;;;;;23.65;4.70;;;24.80;54.90;;;;;;7392787;19;20026;-74
2022/06/19 06:25:09;;;;;;;23.42;5.53;;;24.80;54.10;;;;;;7368016;19;20015;-74
2022/06/19 06:27:41;;;;;;;18.45;4.60;;;24.90;54.90;;;;;;7368196;19;20044;-74
2022/06/19 06:30:12;;;;;;;19.80;4.45;;;24.90;56.10;;;;;;7366876;19;20389;-74
2022/06/19 06:32:41;;;;;;;18.15;5.28;;;24.90;54.50;;;;;;7368706;19;20336;-74
2022/06/19 06:35:11;;;;;;;24.25;4.85;;;24.90;55.00;;;;;;7380695;19;20021;-75
2022/06/19 06:37:40;;;;;;;23.95;5.60;;;24.90;54.80;;;;;;7388096;19;20014;-75
2022/06/19 06:40:09;;;;;;;25.05;5.35;;;24.80;54.20;;;;;;7366615;19;20618;-75
2022/06/19 06:42:41;;;;;;;24.75;5.10;;;24.70;54.90;;;;;;7368942;19;20015;-74
2022/06/19 06:45:15;;;;;;;23.25;5.07;;;24.70;55.90;;;;;;7365207;19;20039;-75
2022/06/19 06:47:43;;;;;;;25.45;5.45;;;24.70;57.40;;;;;;7364190;19;20122;-75
2022/06/19 06:50:12;;;;;;;22.27;5.53;;;24.80;57.10;;;;;;7367585;19;20426;-75
2022/06/19 06:52:41;;;;;;;21.98;5.18;;;24.70;57.30;;;;;;7390886;19;20070;-75
2022/06/19 06:55:12;;;;;;;20.95;5.03;;;24.70;56.30;;;;;;7365408;19;20722;-75
2022/06/19 06:57:44;;;;;;;24.00;5.53;;;24.60;56.40;;;;;;7369113;19;20165;-75
2022/06/19 07:00:18;;;;;;;23.33;5.47;;;24.60;57.00;;;;;;7367871;19;20098;-75
2022/06/19 07:02:48;;;;;;;24.73;4.85;;;24.70;57.00;;;;;;7367112;19;20033;-75
2022/06/19 07:05:17;;;;;;;17.45;4.68;;;24.80;56.80;;;;;;7365053;19;20446;-75
2022/06/19 07:07:46;;;;;;;14.63;4.85;;;24.90;56.00;;;;;;7387405;19;20464;-75
2022/06/19 07:10:15;;;;;;;29.75;5.45;;;24.90;55.90;;;;;;7366200;19;20018;-75
2022/06/19 07:12:46;;;;;;;18.55;4.55;;;25.00;55.60;;;;;;7366606;19;20429;-75
2022/06/19 07:15:15;;;;;;;;;;;24.90;54.70;;;;;;7365475;19;20564;-75
2022/06/19 07:17:44;;;;;;;17.13;4.85;;;24.80;55.00;;;;;;7368720;19;19978;-75
2022/06/19 07:20:18;;;;;;;23.48;5.65;;;24.70;54.70;;;;;;7365727;19;20378;-76
2022/06/19 07:22:46;;;;;;;29.80;5.05;;;24.60;54.80;;;;;;7386078;19;20018;-76
2022/06/19 07:25:18;;;;;;;26.02;4.90;;;24.60;55.20;;;;;;7365477;19;20011;-74
2022/06/19 07:27:53;;;;;;;13.52;4.18;;;24.40;54.40;;;;;;7374709;19;20078;-75
2022/06/19 07:30:26;;;;;;;26.90;5.95;;;24.40;55.90;;;;;;7373171;19;20082;-75
2022/06/19 07:32:54;;;;;;;17.52;5.07;;;24.40;55.10;;;;;;7375700;19;20110;-75
2022/06/19 07:35:23;;;;;;;21.15;4.30;;;24.30;55.00;;;;;;7372172;19;20143;-75
2022/06/19 07:37:54;;;;;;;22.25;4.47;;;24.00;54.70;;;;;;7393857;19;20026;-76
2022/06/19 07:40:25;;;;;;;16.30;3.07;;;24.00;54.80;;;;;;7372188;19;20562;-76
2022/06/19 07:42:56;;;;;;;21.15;4.28;;;24.00;54.80;;;;;;7392660;19;20118;-76
2022/06/19 07:45:25;;;;;;;19.95;4.50;;;24.10;55.10;;;;;;7392630;19;20018;-76
2022/06/19 07:50:35;;;;;;;20.10;5.32;;;24.20;54.60;;;;;;7387592;19;20041;-76
2022/06/19 07:53:04;;;;;;;16.55;4.18;;;24.40;55.00;;;;;;7406379;19;20039;-77
2022/06/19 07:55:33;;;;;;;20.25;4.30;;;24.50;54.20;;;;;;7393491;19;20015;-76
2022/06/19 07:58:05;;;;;;;26.02;4.07;;;24.60;53.60;;;;;;7397340;19;20003;-76
2022/06/19 08:00:37;;;;;;;18.35;3.65;;;24.60;54.20;;;;;;7397849;19;20035;-76
2022/06/19 08:03:07;;;;;;;23.50;4.18;;;24.70;53.70;;;;;;7392668;19;20031;-77
2022/06/19 08:05:37;;;;;;;14.25;3.58;;;24.60;53.10;;;;;;7380904;19;20035;-78
2022/06/19 08:08:09;;;;;;;14.32;4.00;;;24.50;54.10;;;;;;7395614;19;20026;-77
2022/06/19 08:10:40;;;;;;;18.27;3.67;;;24.50;55.50;;;;;;7380582;19;20031;-77
2022/06/19 08:13:12;;;;;;;;;;;24.50;54.90;;;;;;7380379;19;20123;-81
2022/06/19 08:15:41;;;;;;;20.05;3.88;;;24.60;54.60;;;;;;7376181;19;20413;-77
2022/06/19 08:18:11;;;;;;;21.48;3.65;;;24.80;55.00;;;;;;7377028;19;20054;-78
2022/06/19 08:20:40;;;;;;;17.23;5.03;;;24.90;55.30;;;;;;7375476;19;20018;-77
2022/06/19 08:23:09;;;;;;;16.17;3.95;;;25.10;55.00;;;;;;7392190;19;20046;-78
2022/06/19 08:25:38;;;;;;;13.27;3.60;;;25.20;54.80;;;;;;7396072;19;20086;-77
2022/06/19 08:28:07;;;;;;;20.50;4.53;;;25.20;55.20;;;;;;7371521;19;20014;-78
2022/06/19 08:30:43;;;;;;;21.38;4.05;;;25.30;54.40;;;;;;7376486;19;20048;-77
2022/06/19 08:33:13;;;;;;;18.50;4.40;;;25.40;54.70;;;;;;7377518;19;20015;-77
2022/06/19 08:35:45;;;;;;;14.05;3.58;;;25.50;54.30;;;;;;7377377;19;20007;-77
2022/06/19 08:38:21;;;;;;;21.13;4.35;;;25.50;53.90;;;;;;7379657;19;20053;-77
2022/06/19 08:41:11;;;;;;;18.60;4.43;;;25.50;53.60;;;;;;7396139;19;20019;-77
2022/06/19 08:44:06;;;;;;;20.73;4.73;;;25.50;53.50;;;;;;7375826;19;20033;-78
2022/06/19 08:46:49;;;;;;;21.25;4.05;;;25.50;53.00;;;;;;7374703;19;20302;-76
2022/06/19 08:49:32;;;;;;;16.15;4.18;;;25.40;52.70;;;;;;7377729;19;20597;-77
2022/06/19 08:52:07;;;;;;;18.20;4.22;;;25.40;53.30;;;;;;7375876;19;20022;-77
2022/06/19 08:54:48;;;;;;;12.73;3.78;;;25.40;53.20;;;;;;7377586;19;20019;-78
2022/06/19 08:57:27;;;;;;;17.58;3.97;;;25.50;53.20;;;;;;7374467;19;20018;-77
2022/06/19 09:00:05;;;;;;;16.10;4.72;;;25.60;53.10;;;;;;7373234;19;20018;-77
2022/06/19 09:02:57;;;;;;;20.45;4.88;;;25.90;53.60;;;;;;7376779;19;20089;-78
2022/06/19 09:05:45;;;;;;;19.42;4.78;;;26.00;52.20;;;;;;7373321;19;20141;-78
2022/06/19 09:08:50;;;;;;;35.42;5.72;;;26.30;51.70;;;;;;7371638;19;20015;-77
2022/06/19 09:11:37;;;;;;;15.07;4.25;;;26.40;50.40;;;;;;7371167;19;20093;-78
2022/06/19 09:14:15;;;;;;;17.73;4.57;;;26.40;51.00;;;;;;7394222;19;20022;-76
2022/06/19 09:16:54;;;;;;;18.45;5.35;;;26.50;51.40;;;;;;7370554;19;20011;-77
2022/06/19 09:19:39;;;;;;;15.32;4.45;;;26.60;51.50;;;;;;7370391;19;20455;-77
2022/06/19 09:22:18;;;;;;;25.15;5.32;;;26.70;51.50;;;;;;7369957;19;20064;-77
2022/06/19 09:25:06;;;;;;;19.08;5.15;;;26.70;50.10;;;;;;7370931;19;20098;-77
2022/06/19 09:27:43;;;;;;;20.13;4.80;;;26.70;50.90;;;;;;7370933;19;20025;-77
2022/06/19 09:30:16;;;;;;;17.42;4.75;;;26.70;50.60;;;;;;7373041;19;20082;-78
2022/06/19 09:32:51;;;;;;;18.85;5.53;;;26.70;50.20;;;;;;7373051;19;20038;-79
2022/06/19 09:35:28;;;;;;;22.98;5.32;;;26.70;50.40;;;;;;7370043;19;20038;-77
2022/06/19 09:38:02;;;;;;;22.67;6.15;;;26.70;50.90;;;;;;7397915;19;20911;-77
2022/06/19 09:40:33;;;;;;;29.20;6.28;;;26.80;50.10;;;;;;7373813;19;20089;-78
2022/06/19 09:43:08;;;;;;;36.67;6.32;;;26.70;49.80;;;;;;7374909;19;20024;-78
2022/06/19 09:45:42;;;;;;;25.08;5.47;;;26.60;49.60;;;;;;7377632;19;20070;-78
2022/06/19 09:48:23;;;;;;;26.52;5.72;;;26.50;51.70;;;;;;7380364;19;20110;-77
2022/06/19 09:50:56;;;;;;;;;;;26.50;50.90;;;;;;7368486;19;20010;-77
2022/06/19 09:53:35;;;;;;;19.05;6.07;;;26.50;50.80;;;;;;7371041;19;19933;-78
2022/06/19 09:56:18;;;;;;;23.33;6.38;;;26.40;50.40;;;;;;7399970;19;20014;-77
2022/06/19 09:58:53;;;;;;;23.83;6.60;;;26.20;51.20;;;;;;7374681;19;20137;-77
2022/06/19 10:01:23;;;;;;;24.70;6.60;;;26.10;51.70;;;;;;7376736;19;20462;-78
2022/06/19 10:03:56;;;;;;;24.65;6.28;;;26.00;51.80;;;;;;7379378;19;20015;-78
2022/06/19 10:06:37;;;;;;;23.30;6.95;;;25.90;52.80;;;;;;7373769;19;20054;-78
2022/06/19 10:09:19;;;;;;;23.90;6.85;;;25.60;52.70;;;;;;7373645;19;20059;-78
2022/06/19 10:11:51;;;;;;;24.60;6.95;;;25.70;53.30;;;;;;7379592;19;20489;-78
2022/06/19 10:14:30;;;;;;;25.67;6.75;;;25.70;52.40;;;;;;7376389;19;20044;-78
2022/06/19 10:17:03;;;;;;;25.55;7.55;;;25.80;53.40;;;;;;7401125;19;20149;-77
2022/06/19 10:19:42;;;;;;;23.25;6.00;;;25.60;53.50;;;;;;7385400;19;20067;-78
2022/06/19 10:22:29;;;;;;;18.55;6.07;;;25.60;52.80;;;;;;7380973;19;20016;-78
2022/06/19 10:25:12;;;;;;;28.08;6.15;;;25.70;53.40;;;;;;7384840;19;20021;-77
2022/06/19 10:27:52;;;;;;;23.60;6.50;;;25.70;53.10;;;;;;7388018;19;20075;-78
2022/06/19 10:30:24;;;;;;;25.23;5.95;;;25.70;53.40;;;;;;7382670;19;20026;-77
2022/06/19 10:33:11;;;;;;;19.23;6.72;;;25.50;53.30;;;;;;7387647;19;20021;-78
2022/06/19 10:35:46;;;;;;;20.15;5.85;;;25.50;53.90;;;;;;7390709;19;20054;-78
2022/06/19 10:38:32;;;;;;;19.98;6.00;;;25.40;53.80;;;;;;7389801;19;20022;-77
2022/06/19 10:41:05;;;;;;;23.40;6.45;;;25.60;53.90;;;;;;7411486;19;20023;-78
2022/06/19 10:43:52;;;;;;;19.83;7.10;;;25.80;53.70;;;;;;7391621;19;20054;-77
2022/06/19 10:46:21;;;;;;;20.17;7.15;;;25.70;54.10;;;;;;7383786;19;20027;-77
2022/06/19 10:49:00;;;;;;;20.50;6.05;;;25.60;52.80;;;;;;7384611;19;20025;-77
2022/06/19 10:51:43;;;;;;;18.25;5.93;;;25.50;53.40;;;;;;7377059;19;20018;-77
2022/06/19 10:54:35;;;;;;;25.73;7.00;;;25.40;54.10;;;;;;7371662;19;20014;-77
2022/06/19 10:57:13;;;;;;;21.58;7.15;;;25.20;53.50;;;;;;7368938;19;20341;-77
2022/06/19 10:59:42;;;;;;;20.60;6.45;;;25.30;53.00;;;;;;7370584;19;20436;-77
2022/06/19 11:05:15;;;;;;;21.25;6.10;;;25.40;53.70;;;;;;7380813;19;20014;-77
2022/06/19 11:07:44;;;;;;;25.10;6.85;;;25.40;53.90;;;;;;7392003;19;20035;-77
2022/06/19 11:10:22;;;;;;;23.67;6.55;;;25.30;53.40;;;;;;7383427;19;20014;-87
2022/06/19 11:12:56;;;;;;;32.80;7.22;;;25.20;53.40;;;;;;7386415;19;20130;-88
2022/06/19 11:15:32;;;;;;;24.30;7.35;;;25.00;53.30;;;;;;7390007;19;20015;-88
2022/06/19 11:18:13;;;;;;;19.35;6.60;;;25.10;54.10;;;;;;7384600;19;20022;-88
2022/06/19 11:20:45;;;;;;;21.88;6.95;;;25.20;53.30;;;;;;7387197;19;20034;-89
2022/06/19 11:23:27;;;;;;;25.52;7.50;;;25.30;53.30;;;;;;7375994;19;20015;-87
2022/06/19 11:26:17;;;;;;;21.50;7.35;;;25.00;53.50;;;;;;7401489;19;20378;-88
2022/06/19 11:28:51;;;;;;;27.63;7.45;;;24.70;54.00;;;;;;7374121;19;20037;-87
2022/06/19 11:31:24;;;;;;;25.10;7.38;;;24.50;54.60;;;;;;7370391;19;20697;-82
2022/06/19 11:33:56;;;;;;;15.93;6.30;;;24.50;54.70;;;;;;7380473;19;20021;-88
2022/06/19 11:36:32;;;;;;;20.20;6.63;;;24.60;55.30;;;;;;7394860;19;20093;-89
2022/06/19 11:39:03;;;;;;;17.85;7.35;;;24.70;55.30;;;;;;7379459;19;20007;-83
2022/06/19 11:41:46;;;;;;;16.00;6.22;;;24.80;53.70;;;;;;7375849;19;20018;-84
2022/06/19 11:44:18;;;;;;;25.15;6.53;;;24.90;54.10;;;;;;7372652;19;20081;-83
2022/06/19 11:46:50;;;;;;;16.77;6.10;;;25.10;53.70;;;;;;7395336;19;20031;-84
2022/06/19 11:49:36;;;;;;;19.00;6.57;;;25.30;53.60;;;;;;7372896;19;20339;-82
2022/06/19 11:52:09;;;;;;;25.05;6.80;;;25.40;53.40;;;;;;7372027;19;20007;-82
2022/06/19 11:54:45;;;;;;;15.85;6.18;;;25.40;53.00;;;;;;7372103;19;20014;-83
2022/06/19 11:57:26;;;;;;;20.23;6.45;;;25.40;52.70;;;;;;7371567;19;20082;-83
2022/06/19 11:59:58;;;;;;;16.00;6.78;;;25.50;52.90;;;;;;7371587;19;20011;-82
2022/06/19 12:02:30;;;;;;;17.17;7.28;;;25.70;52.20;;;;;;7371582;19;20011;-83
2022/06/19 12:05:04;;;;;;;46.65;26.05;;;25.70;52.00;;;;;;7394601;19;20010;-84
2022/06/19 12:07:37;;;;;;;16.08;6.63;;;25.50;51.80;;;;;;7372799;19;20007;-84
2022/06/19 12:10:09;;;;;;;25.35;8.43;;;24.90;52.20;;;;;;7372561;19;20015;-83
2022/06/19 12:12:40;;;;;;;20.02;7.22;;;24.90;53.10;;;;;;7369230;19;20025;-80
2022/06/19 12:15:22;;;;;;;;;;;25.00;52.60;;;;;;7376221;19;20093;-80
2022/06/19 12:17:59;;;;;;;20.70;7.60;;;24.80;52.20;;;;;;7373546;19;19915;-80
2022/06/19 12:20:31;;;;;;;19.40;8.40;;;24.80;53.10;;;;;;7375183;19;20036;-80
2022/06/19 12:23:06;;;;;;;20.15;6.25;;;24.90;52.70;;;;;;7394614;19;20018;-80
2022/06/19 12:25:49;;;;;;;15.70;6.45;;;25.30;52.90;;;;;;7375110;19;20017;-80
2022/06/19 12:28:26;;;;;;;28.55;7.03;;;25.70;52.60;;;;;;7373457;19;20098;-80
2022/06/19 12:30:58;;;;;;;18.70;5.78;;;25.80;50.70;;;;;;7374184;19;20183;-80
2022/06/19 12:33:31;;;;;;;18.85;5.47;;;26.00;51.00;;;;;;7372327;19;20557;-80
2022/06/19 12:36:00;;;;;;;25.42;6.45;;;26.30;50.60;;;;;;7372535;19;20777;-79
2022/06/19 12:38:34;;;;;;;11.65;5.85;;;26.20;49.70;;;;;;7373046;19;20023;-80
2022/06/19 12:41:13;;;;;;;12.82;5.75;;;26.30;49.70;;;;;;7397931;19;20022;-80
2022/06/19 12:43:58;;;;;;;17.50;5.05;;;26.40;49.50;;;;;;7373706;19;20020;-79
2022/06/19 12:46:34;;;;;;;17.67;5.32;;;26.60;50.00;;;;;;7372348;19;20028;-82
2022/06/19 12:49:18;;;;;;;14.02;5.03;;;26.80;49.60;;;;;;7373847;19;20789;-83
2022/06/19 12:51:56;;;;;;;24.23;9.38;;;27.00;49.40;;;;;;7374544;19;20018;-83
2022/06/19 12:54:55;;;;;;;24.00;12.10;;;27.00;47.80;;;;;;7374275;19;20022;-83
2022/06/19 12:57:55;;;;;;;16.15;5.13;;;26.90;48.90;;;;;;7370060;19;20019;-82
2022/06/19 13:00:40;;;;;;;23.27;11.88;;;27.20;48.90;;;;;;7372267;19;20018;-83
2022/06/19 13:03:36;;;;;;;19.63;8.70;;;27.40;48.50;;;;;;7375055;19;20143;-83
2022/06/19 13:06:17;;;;;;;24.75;12.73;;;27.60;48.20;;;;;;7375686;19;20017;-83
2022/06/19 13:08:54;;;;;;;12.70;6.72;;;27.80;47.70;;;;;;7374834;19;20932;-83
2022/06/19 13:11:32;;;;;;;13.32;4.93;;;28.00;46.90;;;;;;7375851;19;20121;-82
2022/06/19 13:14:24;;;;;;;17.27;4.90;;;28.10;47.30;;;;;;7396336;19;20047;-82